Time;durP1;ratioP1;P1;durP2;ratioP2;P2;SDS_P1;SDS_P2;PMS_P1;PMS_P2;Temp;Humidity;BMP_temperature;BMP_pressure;BME280_temperature;BME280_humidity;BME280_pressure;Samples;Min_cycle;Max_cycle;Signal;HPM_P1;HPM_P2
2022/04/18 00:00:07;;;;;;;2.90;0.60;;;7.90;99.90;;;;;;5052106;28;20457;-69
2022/04/18 00:02:34;;;;;;;3.00;0.83;;;8.00;99.90;;;;;;5051728;28;20911;-68
2022/04/18 00:05:02;;;;;;;3.03;1.00;;;8.10;99.90;;;;;;5051833;28;20930;-70
2022/04/18 00:07:29;;;;;;;3.10;0.70;;;8.10;99.90;;;;;;5051973;28;20949;-70
2022/04/18 00:09:56;;;;;;;3.03;0.93;;;8.10;99.90;;;;;;5051341;28;20955;-68
2022/04/18 00:12:24;;;;;;;3.40;0.63;;;8.10;99.90;;;;;;5051435;28;20478;-69
2022/04/18 00:14:51;;;;;;;3.70;0.90;;;8.20;99.90;;;;;;5051891;28;20465;-68
2022/04/18 00:17:19;;;;;;;2.97;0.73;;;8.20;99.90;;;;;;5051877;28;20507;-69
2022/04/18 00:19:46;;;;;;;2.73;0.50;;;8.20;99.90;;;;;;5051952;28;20841;-69
2022/04/18 00:22:13;;;;;;;3.07;0.80;;;8.20;99.90;;;;;;5051870;28;20524;-69
2022/04/18 00:24:40;;;;;;;2.90;0.90;;;8.10;99.90;;;;;;5051502;28;20476;-68
2022/04/18 00:27:07;;;;;;;3.00;0.93;;;7.90;99.90;;;;;;5051341;28;20949;-69
2022/04/18 00:29:34;;;;;;;3.50;0.90;;;7.90;99.90;;;;;;5051448;28;20826;-69
2022/04/18 00:32:01;;;;;;;2.97;0.97;;;7.90;99.90;;;;;;5051348;28;20469;-68
2022/04/18 00:34:32;;;;;;;3.20;1.07;;;7.70;99.90;;;;;;5051356;28;20881;-69
2022/04/18 00:36:59;;;;;;;3.30;0.97;;;7.40;99.90;;;;;;5051428;28;20959;-69
2022/04/18 00:39:26;;;;;;;3.00;0.90;;;7.30;99.90;;;;;;5051281;28;20485;-69
2022/04/18 00:41:53;;;;;;;2.97;0.93;;;7.30;99.90;;;;;;5051336;28;20528;-70
2022/04/18 00:44:20;;;;;;;3.60;1.37;;;7.40;99.90;;;;;;5051197;28;20466;-69
2022/04/18 00:46:47;;;;;;;3.50;1.20;;;7.60;99.90;;;;;;5051337;28;20488;-68
2022/04/18 00:49:14;;;;;;;3.83;1.17;;;7.70;99.90;;;;;;5050953;28;20508;-69
2022/04/18 00:51:43;;;;;;;3.00;1.00;;;7.80;99.90;;;;;;5050988;28;20508;-69
2022/04/18 00:54:12;;;;;;;3.30;0.90;;;7.80;99.90;;;;;;5050718;28;20489;-70
2022/04/18 00:56:40;;;;;;;2.80;0.73;;;8.00;99.90;;;;;;5050905;28;20449;-68
2022/04/18 00:59:08;;;;;;;3.00;0.77;;;8.00;99.90;;;;;;5051086;28;20527;-69
2022/04/18 01:01:38;;;;;;;3.47;1.10;;;8.10;99.90;;;;;;5050986;28;20462;-68
2022/04/18 01:04:06;;;;;;;3.77;1.10;;;8.20;99.90;;;;;;5050888;28;20552;-69
2022/04/18 01:06:34;;;;;;;3.30;0.90;;;8.30;99.90;;;;;;5050659;28;20852;-70
2022/04/18 01:09:03;;;;;;;3.30;0.80;;;8.20;99.90;;;;;;5050883;28;20445;-69
2022/04/18 01:11:30;;;;;;;3.53;1.10;;;8.20;99.90;;;;;;5050526;28;20880;-69
2022/04/18 01:14:02;;;;;;;3.30;0.80;;;8.00;99.90;;;;;;5050614;28;20805;-70
2022/04/18 01:16:29;;;;;;;3.20;0.87;;;8.00;99.90;;;;;;5050656;28;20513;-69
2022/04/18 01:18:57;;;;;;;3.30;1.30;;;8.10;99.90;;;;;;5050645;28;20881;-69
2022/04/18 01:21:26;;;;;;;3.93;0.80;;;8.20;99.90;;;;;;5050534;28;20564;-69
2022/04/18 01:23:55;;;;;;;3.20;1.10;;;8.10;99.90;;;;;;5050401;28;20553;-69
2022/04/18 01:29:07;;;;;;;3.47;1.10;;;8.00;99.90;;;;;;5050512;28;20429;-68
2022/04/18 01:31:35;;;;;;;3.10;1.13;;;8.00;99.90;;;;;;5050263;28;20484;-69
2022/04/18 01:34:04;;;;;;;3.00;0.90;;;8.10;99.90;;;;;;5050053;28;20501;-70
2022/04/18 01:36:33;;;;;;;3.37;1.23;;;8.20;99.90;;;;;;5050301;28;20453;-69
2022/04/18 01:39:00;;;;;;;3.30;1.20;;;8.20;99.90;;;;;;5050277;28;20453;-69
2022/04/18 01:41:27;;;;;;;3.30;1.20;;;8.30;99.90;;;;;;5050356;28;20454;-69
2022/04/18 01:43:55;;;;;;;3.60;1.20;;;8.30;99.90;;;;;;5049681;28;21036;-68
2022/04/18 01:46:22;;;;;;;3.40;1.30;;;8.10;99.90;;;;;;5049997;28;20454;-70
2022/04/18 01:48:51;;;;;;;3.20;1.10;;;8.20;99.90;;;;;;5049699;28;20978;-69
2022/04/18 01:51:19;;;;;;;3.97;1.27;;;8.20;99.90;;;;;;5050048;28;21060;-69
2022/04/18 01:53:48;;;;;;;3.50;1.37;;;8.20;99.90;;;;;;5049782;28;20521;-68
2022/04/18 01:56:16;;;;;;;3.60;1.30;;;8.30;99.90;;;;;;5050014;28;20795;-68
2022/04/18 01:58:43;;;;;;;3.40;1.10;;;8.40;99.90;;;;;;5049724;28;20985;-69
2022/04/18 02:01:10;;;;;;;3.40;1.17;;;8.50;99.90;;;;;;5049992;28;20981;-69
2022/04/18 02:03:41;;;;;;;4.47;1.60;;;8.60;99.90;;;;;;5049503;28;21048;-69
2022/04/18 02:06:09;;;;;;;3.27;1.30;;;8.60;99.90;;;;;;5049995;28;20454;-67
2022/04/18 02:08:36;;;;;;;3.10;1.20;;;8.60;99.90;;;;;;5049789;28;20812;-69
2022/04/18 02:11:05;;;;;;;3.00;1.20;;;8.60;99.90;;;;;;5049803;28;20557;-69
2022/04/18 02:13:32;;;;;;;3.40;1.57;;;8.60;99.90;;;;;;5049478;28;20576;-69
2022/04/18 02:15:59;;;;;;;3.63;1.33;;;8.50;99.90;;;;;;5049599;28;20491;-69
2022/04/18 02:18:27;;;;;;;3.67;1.30;;;8.50;99.90;;;;;;5049026;28;20445;-70
2022/04/18 02:20:55;;;;;;;3.13;1.13;;;8.50;99.90;;;;;;5049593;28;20456;-70
2022/04/18 02:23:22;;;;;;;3.60;1.50;;;8.60;99.90;;;;;;5049000;28;20466;-68
2022/04/18 02:25:49;;;;;;;3.40;1.23;;;8.60;99.90;;;;;;5049461;28;20446;-68
2022/04/18 02:28:18;;;;;;;3.00;1.20;;;8.60;99.90;;;;;;5049485;28;20454;-69
2022/04/18 02:30:45;;;;;;;3.70;1.67;;;8.60;99.90;;;;;;5049385;28;20446;-70
2022/04/18 02:33:12;;;;;;;3.60;1.40;;;8.60;99.90;;;;;;5049252;28;20978;-68
2022/04/18 02:35:39;;;;;;;4.10;1.50;;;8.50;99.90;;;;;;5049395;28;20819;-69
2022/04/18 02:38:06;;;;;;;3.33;1.20;;;8.50;99.90;;;;;;5048855;28;20850;-69
2022/04/18 02:40:33;;;;;;;3.40;1.47;;;8.50;99.90;;;;;;5049387;28;20861;-69
2022/04/18 02:43:01;;;;;;;3.60;1.23;;;8.50;99.90;;;;;;5049230;28;20861;-69
2022/04/18 02:45:31;;;;;;;3.60;1.00;;;8.60;99.90;;;;;;5049342;28;20531;-69
2022/04/18 02:47:58;;;;;;;3.07;1.10;;;8.60;99.90;;;;;;5048889;28;20581;-69
2022/04/18 02:50:25;;;;;;;3.27;1.13;;;8.50;99.90;;;;;;5048698;28;21036;-68
2022/04/18 02:52:52;;;;;;;3.40;1.27;;;8.30;99.90;;;;;;5048663;28;20470;-68
2022/04/18 02:55:20;;;;;;;3.50;1.37;;;8.30;99.90;;;;;;5049069;28;20457;-70
2022/04/18 02:57:47;;;;;;;3.97;1.73;;;8.10;99.90;;;;;;5049250;28;20992;-69
2022/04/18 03:00:14;;;;;;;3.17;1.20;;;8.20;99.90;;;;;;5051947;28;20460;-69
2022/04/18 03:02:43;;;;;;;3.23;1.20;;;8.30;99.90;;;;;;5053116;28;20552;-69
2022/04/18 03:05:11;;;;;;;3.60;1.47;;;8.30;99.90;;;;;;5052814;28;20456;-68
2022/04/18 03:07:39;;;;;;;3.70;1.30;;;8.40;99.90;;;;;;5052989;28;20820;-69
2022/04/18 03:10:07;;;;;;;3.17;1.20;;;8.40;99.90;;;;;;5052817;28;20521;-68
2022/04/18 03:12:34;;;;;;;2.97;1.07;;;8.20;99.90;;;;;;5052890;28;20464;-69
2022/04/18 03:15:02;;;;;;;2.80;0.80;;;8.30;99.90;;;;;;5052534;28;20490;-69
2022/04/18 03:17:29;;;;;;;3.93;0.80;;;8.10;99.90;;;;;;5052958;28;21001;-68
2022/04/18 03:19:57;;;;;;;4.50;0.97;;;8.10;99.90;;;;;;5052571;28;20457;-69
2022/04/18 03:22:25;;;;;;;5.73;1.00;;;8.10;99.90;;;;;;5052643;28;20449;-69
2022/04/18 03:24:53;;;;;;;3.10;0.97;;;8.10;99.90;;;;;;5053053;28;20806;-70
2022/04/18 03:27:21;;;;;;;2.80;0.83;;;8.00;99.90;;;;;;5052800;28;20446;-68
2022/04/18 03:29:49;;;;;;;3.07;0.67;;;7.90;99.90;;;;;;5052689;28;20462;-68
2022/04/18 03:32:16;;;;;;;3.20;0.90;;;7.90;99.90;;;;;;5052507;28;20483;-69
2022/04/18 03:34:43;;;;;;;3.10;1.07;;;7.90;99.90;;;;;;5052185;28;20508;-69
2022/04/18 03:39:56;;;;;;;3.50;1.10;;;7.80;99.90;;;;;;5052564;28;20548;-69
2022/04/18 03:42:32;;;;;;;3.90;0.80;;;7.80;99.90;;;;;;5052408;28;20457;-68
2022/04/18 03:45:02;;;;;;;3.10;1.10;;;7.70;99.90;;;;;;5051966;28;20438;-69
2022/04/18 03:47:29;;;;;;;3.20;1.10;;;7.70;99.90;;;;;;5052206;28;20930;-70
2022/04/18 03:49:57;;;;;;;3.57;1.17;;;7.70;99.90;;;;;;5052287;28;20543;-70
2022/04/18 03:52:26;;;;;;;3.57;1.40;;;7.70;99.90;;;;;;5052084;28;20827;-68
2022/04/18 03:54:53;;;;;;;4.87;2.17;;;7.60;99.90;;;;;;5052181;28;20853;-68
2022/04/18 03:57:20;;;;;;;5.10;1.30;;;7.60;99.90;;;;;;5052109;28;20818;-69
2022/04/18 03:59:48;;;;;;;3.33;1.30;;;7.50;99.90;;;;;;5051911;28;20456;-69
2022/04/18 04:02:15;;;;;;;3.20;1.20;;;7.50;99.90;;;;;;5052375;28;20450;-69
2022/04/18 04:04:42;;;;;;;3.20;1.20;;;7.30;99.90;;;;;;5052397;28;20527;-69
2022/04/18 04:07:09;;;;;;;3.80;1.30;;;7.40;99.90;;;;;;5052253;28;20454;-68
2022/04/18 04:09:38;;;;;;;3.13;1.17;;;7.50;99.90;;;;;;5051622;28;20450;-68
2022/04/18 04:12:06;;;;;;;3.40;1.10;;;7.50;99.90;;;;;;5051972;28;20811;-68
2022/04/18 04:14:33;;;;;;;4.40;1.50;;;7.70;99.90;;;;;;5050330;28;20539;-68
2022/04/18 04:17:00;;;;;;;3.87;1.87;;;7.70;99.90;;;;;;5051763;28;20457;-67
2022/04/18 04:19:28;;;;;;;3.70;1.33;;;7.80;99.90;;;;;;5051829;28;20454;-68
2022/04/18 04:21:55;;;;;;;3.40;1.20;;;7.80;99.90;;;;;;5051770;28;20457;-69
2022/04/18 04:24:22;;;;;;;3.20;1.20;;;7.90;99.90;;;;;;5051303;28;20480;-69
2022/04/18 04:26:51;;;;;;;5.53;1.77;;;8.00;99.90;;;;;;5051309;28;20449;-68
2022/04/18 04:29:18;;;;;;;4.23;1.73;;;8.00;99.90;;;;;;5051599;28;20461;-69
2022/04/18 04:31:45;;;;;;;5.07;2.03;;;7.90;99.90;;;;;;5051474;28;20481;-68
2022/04/18 04:34:13;;;;;;;4.40;1.70;;;8.00;99.90;;;;;;5051606;28;20482;-69
2022/04/18 04:36:41;;;;;;;4.60;2.00;;;8.10;99.90;;;;;;5051657;28;20482;-69
2022/04/18 04:39:09;;;;;;;4.50;2.27;;;8.20;99.90;;;;;;5051161;28;20540;-69
2022/04/18 04:41:36;;;;;;;3.90;1.70;;;8.20;99.90;;;;;;5051301;28;20453;-70
2022/04/18 04:44:06;;;;;;;4.17;1.67;;;8.20;99.90;;;;;;5051072;28;20470;-76
2022/04/18 04:46:33;;;;;;;4.00;2.00;;;8.00;99.90;;;;;;5051532;28;20884;-76
2022/04/18 04:49:00;;;;;;;3.80;2.00;;;8.00;99.90;;;;;;5050772;28;20497;-71
2022/04/18 04:51:27;;;;;;;4.50;2.47;;;8.10;99.90;;;;;;5051014;28;20446;-70
2022/04/18 04:53:54;;;;;;;3.90;1.93;;;8.10;99.90;;;;;;5050932;28;20494;-70
2022/04/18 04:56:24;;;;;;;4.57;1.97;;;8.10;99.90;;;;;;5051068;28;20446;-75
2022/04/18 04:58:53;;;;;;;3.60;2.00;;;8.30;99.90;;;;;;5050852;28;20458;-75
2022/04/18 05:01:21;;;;;;;4.90;2.20;;;8.30;99.90;;;;;;5051000;28;20557;-73
2022/04/18 05:03:49;;;;;;;4.13;2.07;;;8.30;99.90;;;;;;5051031;28;20478;-70
2022/04/18 05:06:16;;;;;;;4.50;2.33;;;8.40;99.90;;;;;;5050836;28;20461;-74
2022/04/18 05:08:43;;;;;;;4.23;2.00;;;8.40;99.90;;;;;;5050760;28;20454;-74
2022/04/18 05:11:10;;;;;;;4.70;2.50;;;8.50;99.90;;;;;;5050801;28;20464;-72
2022/04/18 05:13:38;;;;;;;5.47;3.00;;;8.50;99.90;;;;;;5048909;28;20469;-72
2022/04/18 05:16:05;;;;;;;4.50;2.53;;;8.70;99.90;;;;;;5050580;28;20446;-73
2022/04/18 05:18:34;;;;;;;4.93;3.00;;;8.80;99.90;;;;;;5050550;28;20529;-72
2022/04/18 05:21:01;;;;;;;5.00;2.70;;;9.00;99.90;;;;;;5050038;28;20656;-70
2022/04/18 05:23:28;;;;;;;4.73;2.70;;;9.00;99.90;;;;;;5049546;28;20474;-72
2022/04/18 05:25:55;;;;;;;6.50;2.50;;;9.10;99.90;;;;;;5050449;28;20507;-72
2022/04/18 05:28:22;;;;;;;5.27;2.60;;;9.10;99.90;;;;;;5050473;28;20947;-72
2022/04/18 05:30:49;;;;;;;4.90;2.53;;;9.20;99.90;;;;;;5050195;28;20778;-71
2022/04/18 05:33:17;;;;;;;6.70;2.73;;;9.20;99.90;;;;;;5050326;28;20470;-72
2022/04/18 05:35:45;;;;;;;4.40;2.57;;;9.20;99.90;;;;;;5050122;28;20500;-72
2022/04/18 05:38:14;;;;;;;6.13;2.80;;;9.10;99.90;;;;;;5050009;28;20863;-69
2022/04/18 05:40:41;;;;;;;4.47;2.77;;;9.00;99.90;;;;;;5050033;28;20962;-70
2022/04/18 05:43:09;;;;;;;6.20;2.87;;;8.90;99.90;;;;;;5049621;28;20904;-75
2022/04/18 05:45:38;;;;;;;5.33;2.83;;;8.80;99.90;;;;;;5050003;28;20482;-69
2022/04/18 05:48:05;;;;;;;5.40;2.60;;;9.00;99.90;;;;;;5049716;28;20537;-69
2022/04/18 05:50:32;;;;;;;5.40;2.70;;;9.10;99.90;;;;;;5049944;28;20871;-71
2022/04/18 05:53:01;;;;;;;6.00;2.67;;;9.00;99.90;;;;;;5049795;28;20479;-70
2022/04/18 05:55:35;;;;;;;5.87;2.57;;;9.10;99.90;;;;;;5049693;28;20493;-70
2022/04/18 05:58:02;;;;;;;5.20;2.70;;;9.00;99.90;;;;;;5049947;28;20448;-72
2022/04/18 06:00:30;;;;;;;5.57;2.63;;;9.10;99.90;;;;;;5049519;28;20457;-73
2022/04/18 06:02:57;;;;;;;5.10;2.53;;;9.10;99.90;;;;;;5049406;28;20480;-72
2022/04/18 06:05:25;;;;;;;5.10;2.53;;;9.20;99.90;;;;;;5049351;28;20464;-71
2022/04/18 06:07:52;;;;;;;4.90;3.30;;;9.20;99.90;;;;;;5049432;28;20445;-73
2022/04/18 06:10:21;;;;;;;5.00;2.60;;;9.10;99.90;;;;;;5049178;28;20819;-72
2022/04/18 06:12:49;;;;;;;4.13;2.00;;;9.20;99.90;;;;;;5049208;28;20824;-72
2022/04/18 06:15:16;;;;;;;4.80;2.30;;;9.20;99.90;;;;;;5049232;28;20500;-71
2022/04/18 06:17:43;;;;;;;5.50;2.90;;;9.30;99.90;;;;;;5049070;28;20544;-70
2022/04/18 06:20:10;;;;;;;5.50;2.27;;;9.50;99.90;;;;;;5049552;28;20454;-70
2022/04/18 06:22:37;;;;;;;4.80;2.40;;;9.70;99.90;;;;;;5049398;28;20509;-71
2022/04/18 06:25:05;;;;;;;5.97;2.50;;;9.90;99.90;;;;;;5049002;28;20500;-69
2022/04/18 06:27:34;;;;;;;4.23;2.23;;;10.10;99.90;;;;;;5049072;28;20454;-69
2022/04/18 06:30:01;;;;;;;4.60;2.60;;;10.20;99.90;;;;;;5049106;28;20450;-69
2022/04/18 06:32:28;;;;;;;4.50;2.30;;;10.00;99.90;;;;;;5049264;28;20820;-69
2022/04/18 06:34:55;;;;;;;4.43;2.10;;;10.20;99.90;;;;;;5048475;28;20497;-68
2022/04/18 06:37:23;;;;;;;4.47;2.37;;;10.40;99.90;;;;;;5048722;28;20449;-68
2022/04/18 06:39:50;;;;;;;4.67;2.20;;;10.50;99.90;;;;;;5049232;28;20458;-70
2022/04/18 06:42:17;;;;;;;6.13;3.27;;;10.40;99.90;;;;;;5048629;28;20449;-68
2022/04/18 06:44:45;;;;;;;4.33;2.20;;;10.30;99.90;;;;;;5049098;28;20453;-68
2022/04/18 06:47:12;;;;;;;5.90;2.97;;;10.10;99.90;;;;;;5048955;28;20534;-69
2022/04/18 06:49:39;;;;;;;4.43;2.57;;;10.10;99.90;;;;;;5048435;28;20481;-68
2022/04/18 06:52:07;;;;;;;9.30;4.80;;;10.30;99.90;;;;;;5048943;28;20480;-68
2022/04/18 06:54:34;;;;;;;6.93;3.87;;;10.40;99.90;;;;;;5048651;28;20490;-69
2022/04/18 06:57:00;;;;;;;4.37;2.60;;;10.50;99.90;;;;;;5048968;28;20456;-69
2022/04/18 06:59:28;;;;;;;5.70;3.10;;;10.70;99.90;;;;;;5048896;28;20472;-69
2022/04/18 07:01:57;;;;;;;4.63;2.63;;;10.70;99.90;;;;;;5048500;28;20472;-69
2022/04/18 07:04:25;;;;;;;4.20;2.10;;;10.70;99.90;;;;;;5048795;28;20883;-70
2022/04/18 07:06:52;;;;;;;4.10;1.83;;;10.90;99.90;;;;;;5048857;28;20461;-68
2022/04/18 07:09:19;;;;;;;5.10;1.97;;;11.10;99.90;;;;;;5048699;28;20458;-68
2022/04/18 07:11:46;;;;;;;3.87;2.03;;;11.10;99.90;;;;;;5048696;28;20534;-68
2022/04/18 07:14:14;;;;;;;4.30;2.27;;;10.90;99.90;;;;;;5048765;28;20472;-69
2022/04/18 07:16:41;;;;;;;7.20;2.80;;;11.10;99.90;;;;;;5048999;28;20492;-69
2022/04/18 07:19:11;;;;;;;4.27;2.10;;;11.10;99.70;;;;;;5048918;28;20458;-69
2022/04/18 07:21:38;;;;;;;4.93;2.20;;;11.10;99.50;;;;;;5048360;28;20454;-68
2022/04/18 07:24:06;;;;;;;4.90;1.90;;;11.00;99.90;;;;;;5048685;28;20472;-68
2022/04/18 07:26:34;;;;;;;4.20;1.90;;;11.00;99.90;;;;;;5048355;28;20982;-69
2022/04/18 07:29:01;;;;;;;4.60;2.60;;;10.90;99.90;;;;;;5048745;28;20450;-69
2022/04/18 07:31:28;;;;;;;5.27;2.07;;;10.90;99.90;;;;;;5048690;28;20453;-69
2022/04/18 07:33:55;;;;;;;4.80;2.20;;;10.80;99.90;;;;;;5048751;28;20474;-68
2022/04/18 07:36:24;;;;;;;5.60;2.40;;;10.80;99.90;;;;;;5048571;28;20485;-69
2022/04/18 07:38:50;;;;;;;4.37;1.90;;;10.50;99.90;;;;;;5048499;28;20484;-69
2022/04/18 07:41:18;;;;;;;5.07;2.17;;;10.50;99.90;;;;;;5048520;28;20441;-68
2022/04/18 07:43:46;;;;;;;5.70;2.50;;;10.40;99.90;;;;;;5048409;28;20579;-68
2022/04/18 07:46:15;;;;;;;5.23;1.80;;;10.40;99.90;;;;;;5050583;28;20454;-69
2022/04/18 07:48:42;;;;;;;4.17;2.10;;;10.30;99.90;;;;;;5051743;28;20478;-67
2022/04/18 07:53:55;;;;;;;4.40;2.00;;;10.20;99.90;;;;;;5051742;28;20456;-68
2022/04/18 07:56:22;;;;;;;4.53;2.23;;;10.10;99.90;;;;;;5052133;28;20880;-68
2022/04/18 07:58:50;;;;;;;4.97;2.50;;;9.90;99.90;;;;;;5052225;28;20449;-69
2022/04/18 08:01:17;;;;;;;4.30;2.50;;;9.80;99.90;;;;;;5051931;28;20521;-69
2022/04/18 08:03:44;;;;;;;4.27;2.13;;;9.80;99.90;;;;;;5051644;28;20585;-69
2022/04/18 08:06:12;;;;;;;4.47;2.03;;;9.80;99.90;;;;;;5051914;28;20472;-69
2022/04/18 08:08:39;;;;;;;3.70;1.80;;;9.80;99.90;;;;;;5051960;28;20457;-67
2022/04/18 08:11:11;;;;;;;6.80;3.87;;;10.00;99.90;;;;;;5051852;28;20480;-69
2022/04/18 08:13:40;;;;;;;6.77;3.03;;;10.10;99.90;;;;;;5051650;28;20536;-69
2022/04/18 08:16:07;;;;;;;4.40;2.70;;;10.20;99.90;;;;;;5051483;28;20567;-67
2022/04/18 08:18:36;;;;;;;4.80;2.37;;;10.00;99.90;;;;;;5051614;28;20458;-68
2022/04/18 08:21:03;;;;;;;5.30;2.07;;;10.10;99.90;;;;;;5051646;28;20552;-65
2022/04/18 08:23:31;;;;;;;3.90;2.20;;;10.20;99.90;;;;;;5051492;28;20474;-69
2022/04/18 08:25:59;;;;;;;4.30;1.80;;;10.20;99.90;;;;;;5051456;28;20472;-67
2022/04/18 08:28:27;;;;;;;3.63;1.57;;;10.20;99.90;;;;;;5051110;28;20787;-66
2022/04/18 08:30:55;;;;;;;5.10;2.00;;;10.10;99.90;;;;;;5051435;28;20446;-67
2022/04/18 08:33:22;;;;;;;4.90;2.10;;;10.00;99.90;;;;;;5051280;28;20474;-67
2022/04/18 08:35:49;;;;;;;5.17;1.83;;;9.80;99.90;;;;;;5051475;28;20486;-69
2022/04/18 08:38:17;;;;;;;4.30;1.83;;;9.90;99.90;;;;;;5051497;28;20829;-70
2022/04/18 08:40:45;;;;;;;4.27;2.03;;;9.90;99.90;;;;;;5051365;28;20450;-69
2022/04/18 08:43:12;;;;;;;4.20;1.67;;;9.70;99.90;;;;;;5050771;28;20968;-70
2022/04/18 08:45:41;;;;;;;4.20;2.03;;;9.60;99.90;;;;;;5051337;28;20450;-69
2022/04/18 08:53:38;;;;;;;3.80;1.80;;;9.50;99.90;;;;;;5051030;28;20473;-69
2022/04/18 08:56:06;;;;;;;3.70;1.60;;;9.50;99.90;;;;;;5050286;28;20492;-69
2022/04/18 08:58:33;;;;;;;3.77;1.70;;;9.50;99.90;;;;;;5049960;28;20536;-69
2022/04/18 09:01:04;;;;;;;4.40;2.00;;;9.50;99.90;;;;;;5050706;28;20528;-69
2022/04/18 09:03:31;;;;;;;4.53;2.40;;;9.60;99.90;;;;;;5050945;28;20566;-69
2022/04/18 09:06:08;;;;;;;3.93;1.80;;;9.70;99.90;;;;;;5050809;28;20502;-70
2022/04/18 09:08:42;;;;;;;3.73;1.60;;;9.70;99.90;;;;;;5050880;28;20458;-69
2022/04/18 09:11:10;;;;;;;3.83;1.53;;;9.60;99.90;;;;;;5050511;28;20467;-70
2022/04/18 09:13:43;;;;;;;3.73;1.70;;;9.70;99.90;;;;;;5050855;28;20481;-70
2022/04/18 09:16:18;;;;;;;4.83;1.60;;;9.80;99.90;;;;;;5050549;28;20496;-69
2022/04/18 09:18:47;;;;;;;4.00;1.60;;;10.00;99.90;;;;;;5050661;28;20481;-69
2022/04/18 09:21:14;;;;;;;3.80;1.80;;;10.10;99.90;;;;;;5050469;28;20462;-69
2022/04/18 09:23:41;;;;;;;3.60;1.70;;;10.20;99.90;;;;;;5050372;28;20470;-70
2022/04/18 09:26:09;;;;;;;4.73;1.70;;;10.10;99.90;;;;;;5050455;28;20465;-69
2022/04/18 09:28:40;;;;;;;3.13;1.13;;;10.20;99.90;;;;;;5050304;28;20799;-69
2022/04/18 09:31:08;;;;;;;4.00;1.40;;;10.20;99.90;;;;;;5050190;28;20509;-69
2022/04/18 09:33:44;;;;;;;3.70;1.40;;;10.20;99.90;;;;;;5050140;28;20469;-69
2022/04/18 09:36:13;;;;;;;3.10;1.00;;;10.20;99.90;;;;;;5050220;28;20481;-69
2022/04/18 09:38:44;;;;;;;3.43;1.03;;;10.20;99.90;;;;;;5050319;28;20939;-69
2022/04/18 09:41:14;;;;;;;3.50;1.20;;;10.20;99.90;;;;;;5050333;28;20485;-69
2022/04/18 09:43:43;;;;;;;3.20;1.10;;;10.20;99.90;;;;;;5049652;28;21332;-69
2022/04/18 09:46:11;;;;;;;3.30;1.00;;;10.20;99.90;;;;;;5050184;28;21000;-70
2022/04/18 09:48:38;;;;;;;4.37;1.20;;;10.30;98.90;;;;;;5049785;28;21013;-69
2022/04/18 09:51:15;;;;;;;3.80;1.20;;;10.20;99.90;;;;;;5050068;28;20470;-69
2022/04/18 09:53:44;;;;;;;4.30;1.00;;;10.20;99.50;;;;;;5050044;28;20561;-69
2022/04/18 09:56:15;;;;;;;3.77;1.27;;;10.30;99.80;;;;;;5049712;28;20521;-69
2022/04/18 09:58:42;;;;;;;3.90;1.33;;;10.40;99.90;;;;;;5049656;28;20442;-69
2022/04/18 10:01:10;;;;;;;3.30;1.17;;;10.50;98.60;;;;;;5049471;28;20545;-69
2022/04/18 10:03:39;;;;;;;3.07;0.97;;;10.50;98.30;;;;;;5049800;28;21005;-69
2022/04/18 10:06:08;;;;;;;4.10;1.47;;;10.50;98.30;;;;;;5049779;28;20860;-70
2022/04/18 10:08:37;;;;;;;4.10;2.70;;;10.50;98.60;;;;;;5049355;28;20453;-69
2022/04/18 10:11:07;;;;;;;3.40;1.23;;;10.50;99.60;;;;;;5049574;28;20599;-70
2022/04/18 10:13:36;;;;;;;4.33;1.40;;;10.50;99.00;;;;;;5049694;28;20509;-68
2022/04/18 10:16:04;;;;;;;4.47;1.53;;;10.60;99.20;;;;;;5049593;28;20862;-70
2022/04/18 10:18:39;;;;;;;3.50;1.30;;;10.60;99.30;;;;;;5049580;28;20481;-69
2022/04/18 10:21:28;;;;;;;3.83;2.07;;;10.60;97.80;;;;;;5049512;28;20544;-70
2022/04/18 10:24:25;;;;;;;3.60;1.37;;;10.50;99.00;;;;;;5049509;28;20560;-69
2022/04/18 10:27:24;;;;;;;3.37;1.10;;;10.60;97.70;;;;;;5049538;28;20838;-69
2022/04/18 10:29:54;;;;;;;3.87;1.50;;;10.70;96.60;;;;;;5049255;28;20966;-70
2022/04/18 10:32:24;;;;;;;3.97;1.00;;;10.70;96.30;;;;;;5048942;28;20901;-70
2022/04/18 10:34:52;;;;;;;3.67;1.00;;;10.50;96.80;;;;;;5049367;28;20930;-68
2022/04/18 10:37:24;;;;;;;3.73;1.30;;;10.40;97.50;;;;;;5049264;28;20490;-70
2022/04/18 10:39:59;;;;;;;3.53;1.43;;;10.40;98.20;;;;;;5049265;28;20576;-70
2022/04/18 10:42:31;;;;;;;4.03;1.77;;;10.50;97.40;;;;;;5049201;28;21153;-70
2022/04/18 10:45:00;;;;;;;4.90;2.23;;;10.20;98.40;;;;;;5049196;28;20449;-69
2022/04/18 10:47:27;;;;;;;4.77;1.33;;;10.20;98.70;;;;;;5048918;28;20962;-69
2022/04/18 10:50:16;;;;;;;4.00;2.00;;;10.20;97.60;;;;;;5048560;28;20502;-69
2022/04/18 10:52:44;;;;;;;4.33;1.87;;;10.10;98.30;;;;;;5049075;28;20478;-70
2022/04/18 10:55:20;;;;;;;4.73;2.07;;;10.20;97.80;;;;;;5049132;28;20458;-69
2022/04/18 10:58:13;;;;;;;4.00;2.07;;;10.20;98.50;;;;;;5048636;28;20588;-70
2022/04/18 11:00:51;;;;;;;3.70;1.50;;;10.30;98.30;;;;;;5049133;28;20458;-70
2022/04/18 11:03:46;;;;;;;4.57;2.23;;;10.40;97.30;;;;;;5049120;28;20481;-70
2022/04/18 11:06:47;;;;;;;3.80;1.60;;;10.50;97.70;;;;;;5049094;28;20476;-68
2022/04/18 11:09:16;;;;;;;5.90;2.43;;;10.60;96.80;;;;;;5048863;28;20807;-70
2022/04/18 11:11:48;;;;;;;4.33;1.73;;;10.70;95.70;;;;;;5048776;28;20485;-70
2022/04/18 11:14:20;;;;;;;4.20;1.87;;;10.70;95.50;;;;;;5049093;28;20845;-71
2022/04/18 11:16:58;;;;;;;5.03;1.60;;;10.60;96.10;;;;;;5049084;28;20559;-71
2022/04/18 11:19:28;;;;;;;3.60;1.30;;;10.70;95.70;;;;;;5048586;28;20946;-73
2022/04/18 11:22:16;;;;;;;4.30;1.90;;;10.80;94.80;;;;;;5052464;28;21273;-72
2022/04/18 11:24:45;;;;;;;3.87;1.60;;;10.80;94.90;;;;;;5052778;28;20452;-73
2022/04/18 11:27:15;;;;;;;3.63;1.47;;;10.90;93.90;;;;;;5052709;28;20965;-75
2022/04/18 11:29:45;;;;;;;3.53;1.50;;;10.90;94.40;;;;;;5052695;28;20492;-75
2022/04/18 11:32:16;;;;;;;3.73;1.73;;;10.80;94.10;;;;;;5052496;28;20449;-70
2022/04/18 11:34:47;;;;;;;3.50;1.50;;;10.70;92.60;;;;;;5052584;28;20453;-71
2022/04/18 11:37:22;;;;;;;4.70;1.50;;;10.80;92.70;;;;;;5051960;28;20504;-69
2022/04/18 11:39:52;;;;;;;3.80;1.80;;;10.90;92.80;;;;;;5051996;28;20454;-70
2022/04/18 11:42:22;;;;;;;5.13;2.37;;;11.00;92.30;;;;;;5051889;28;20942;-72
2022/04/18 11:44:52;;;;;;;4.50;2.53;;;10.80;93.30;;;;;;5050913;28;20453;-70
2022/04/18 11:47:22;;;;;;;4.57;2.50;;;10.80;93.50;;;;;;5052282;28;20783;-70
2022/04/18 11:49:55;;;;;;;4.30;2.30;;;10.80;94.50;;;;;;5052242;28;20620;-71
2022/04/18 11:52:23;;;;;;;5.40;2.57;;;10.80;95.60;;;;;;5052191;28;20453;-68
2022/04/18 11:55:01;;;;;;;4.80;2.20;;;10.90;96.10;;;;;;5052085;28;20446;-71
2022/04/18 11:57:32;;;;;;;4.13;2.13;;;10.80;96.80;;;;;;5051947;28;20548;-69
2022/04/18 11:59:59;;;;;;;5.50;2.87;;;10.80;97.10;;;;;;5052073;28;21016;-70
2022/04/18 12:08:02;;;;;;;4.63;2.73;;;10.80;95.90;;;;;;5037662;28;20490;-71
2022/04/18 12:10:32;;;;;;;7.20;2.77;;;10.90;95.30;;;;;;5054254;28;20827;-70
2022/04/18 12:13:05;;;;;;;4.27;2.20;;;11.00;94.60;;;;;;5053304;28;20551;-71
2022/04/18 12:15:32;;;;;;;4.10;1.90;;;10.90;95.30;;;;;;5053239;28;20453;-71
2022/04/18 12:18:09;;;;;;;5.07;2.87;;;11.00;94.90;;;;;;5051841;28;21009;-71
2022/04/18 12:20:37;;;;;;;9.93;2.27;;;11.10;94.90;;;;;;5051649;28;20990;-72
2022/04/18 12:23:04;;;;;;;5.97;3.47;;;11.10;94.20;;;;;;5051532;28;20485;-70
2022/04/18 12:25:34;;;;;;;5.20;2.63;;;11.20;93.90;;;;;;5051829;28;20454;-72
2022/04/18 12:28:05;;;;;;;4.83;2.80;;;11.20;93.80;;;;;;5051785;28;20450;-70
2022/04/18 12:30:32;;;;;;;5.47;2.60;;;11.20;94.50;;;;;;5051226;28;20457;-70
2022/04/18 12:33:12;;;;;;;4.93;2.57;;;11.30;93.90;;;;;;5050794;28;20481;-71
2022/04/18 12:35:40;;;;;;;5.77;2.70;;;11.30;94.40;;;;;;5051598;28;20464;-71
2022/04/18 12:38:09;;;;;;;5.47;3.90;;;11.30;94.10;;;;;;5051487;28;20481;-70
2022/04/18 12:40:39;;;;;;;5.17;2.37;;;11.40;93.50;;;;;;5050593;28;20785;-70
2022/04/18 12:43:12;;;;;;;5.93;3.40;;;11.40;93.00;;;;;;5050917;28;20786;-72
2022/04/18 12:45:44;;;;;;;4.60;2.40;;;11.30;93.30;;;;;;5051172;28;20462;-71
2022/04/18 12:48:11;;;;;;;4.27;2.10;;;11.30;92.70;;;;;;5051325;28;20457;-70
2022/04/18 12:50:39;;;;;;;4.57;2.20;;;11.40;92.80;;;;;;5051493;28;20539;-72
2022/04/18 12:53:06;;;;;;;5.47;2.27;;;11.30;93.00;;;;;;5050958;28;20482;-72
2022/04/18 12:55:33;;;;;;;5.03;2.40;;;11.20;93.60;;;;;;5051052;28;20504;-71
2022/04/18 12:58:02;;;;;;;4.40;2.20;;;11.20;92.90;;;;;;5050942;28;20823;-72
2022/04/18 13:00:37;;;;;;;4.80;2.40;;;11.30;92.80;;;;;;5050928;28;20454;-71
2022/04/18 13:03:06;;;;;;;5.67;3.10;;;11.20;93.20;;;;;;5051083;28;21017;-71
2022/04/18 13:05:41;;;;;;;4.80;2.13;;;11.10;93.40;;;;;;5051078;28;20473;-70
2022/04/18 13:08:09;;;;;;;4.40;2.30;;;11.10;93.20;;;;;;5050951;28;20450;-70
2022/04/18 13:10:38;;;;;;;5.40;2.23;;;11.20;93.90;;;;;;5050600;28;20504;-71
2022/04/18 13:13:06;;;;;;;4.00;1.93;;;11.10;93.80;;;;;;5050718;28;20506;-71
2022/04/18 13:15:35;;;;;;;4.77;2.50;;;11.00;94.10;;;;;;5050759;28;20461;-70
2022/04/18 13:18:06;;;;;;;4.40;2.30;;;11.10;93.10;;;;;;5051008;28;20490;-71
2022/04/18 13:20:34;;;;;;;4.30;2.20;;;11.20;92.90;;;;;;5050832;28;20454;-71